KENW

Kenosha Regional Airport

Kenosha, Wisconsin, USA
METAR KENW 240153Z 14005KT 10SM CLR 17/09 A3017 RMK AO2 SLP216 T01670089
Observed Flight Rules
May-24 @ 01:53 UTC (12 minutes ago) Visual Flight Rules
Wind Visibility Clouds
140° at 5 knots 10 miles
  • Clear skies
Temperatures Readings
Current 17°C / 63°F
Dewpoint 9°C / 48°F
Humidity 59%
Altimeter 30.17" Hg
Pressure 1021.6 hPa
Elevation 219
METAR KENW 240153Z 14005KT 10SM CLR 17/09 A3017 RMK AO2 SLP216 T01670089
Observed Flight Rules
May-24 @ 01:53 UTC
(12 minutes ago)
VFR
Wind Visibility
140° at 5 knots 10 miles
Clouds
  • Clear skies
Temperature Dewpoint
17°C / 63°F 9°C / 48°F
Humidity Altimeter Pressure
59% 30.17" Hg 1021.6 hPa